SLAS/ASC METAR and TAF weather

Enter ICAO airport designator
Station Type Date Time Source
SLAS METAR 2021/07/16 19:00 UTC NOAA

SLAS 161900Z 18008KT 9999 SCT070 25/17 Q1015


Station Type Date Time Source
SLAS Decoded METAR 2021/07/16 19:00 UTC NOAA

Ascencion De Guarayos, Bolivia (SLAS) 15-43S 063-06W
Jul 16, 2021 - 03:00 PM EDT / 2021.07.16 1900 UTC
Wind: from the S (180 degrees) at 9 MPH (8 KT):0
Visibility: greater than 7 mile(s):0
Sky conditions: partly cloudy
Temperature: 77 F (25 C)
Dew Point: 62 F (17 C)
Relative Humidity: 61%
Pressure (altimeter): 29.97 in. Hg (1015 hPa)
ob: SLAS 161900Z 18008KT 9999 SCT070 25/17 Q1015
cycle: 19

Station Type Date Time Source
SLAS TAF UTC NOAA

Error!

Example: see airport list